Time;durP1;ratioP1;P1;durP2;ratioP2;P2;SDS_P1;SDS_P2;PMS_P1;PMS_P2;Temp;Humidity;BMP_temperature;BMP_pressure;BME280_temperature;BME280_humidity;BME280_pressure;Samples;Min_cycle;Max_cycle;Signal;HPM_P1;HPM_P2
2023/12/28 00:00:52;;;;;;;5.90;3.13;;;;;;;;;;5024750;28;20093;-88
2023/12/28 00:03:37;;;;;;;8.30;2.90;;;;;;;;;;5038011;28;20455;-87
2023/12/28 00:06:21;;;;;;;6.82;3.20;;;;;;;;;;5043353;28;20114;-87
2023/12/28 00:09:06;;;;;;;7.93;3.22;;;;;;;;;;5057177;28;20047;-88
2023/12/28 00:11:50;;;;;;;5.60;3.00;;;;;;;;;;5046026;28;20082;-88
2023/12/28 00:14:34;;;;;;;5.78;3.30;;;;;;;;;;5043337;28;20113;-88
2023/12/28 00:17:19;;;;;;;7.55;3.63;;;;;;;;;;5057022;28;20117;-88
2023/12/28 00:20:04;;;;;;;7.75;3.63;;;;;;;;;;5042662;28;20075;-87
2023/12/28 00:22:48;;;;;;;5.63;3.30;;;;;;;;;;5072123;28;20031;-88
2023/12/28 00:25:33;;;;;;;4.57;3.42;;;;;;;;;;5071905;28;20039;-88
2023/12/28 00:28:17;;;;;;;6.32;3.53;;;;;;;;;;5054551;28;20063;-86
2023/12/28 00:31:02;;;;;;;6.03;3.80;;;;;;;;;;5058701;28;20134;-87
2023/12/28 00:33:46;;;;;;;7.18;3.50;;;;;;;;;;5042788;28;20412;-87
2023/12/28 00:36:31;;;;;;;5.90;3.60;;;;;;;;;;5043007;28;20149;-88
2023/12/28 00:39:16;;;;;;;7.10;3.50;;;;;;;;;;5044389;28;20487;-87
2023/12/28 00:42:00;;;;;;;8.02;3.53;;;;;;;;;;5044344;28;20102;-87
2023/12/28 00:44:44;;;;;;;7.32;3.58;;;;;;;;;;5033330;28;20075;-88
2023/12/28 00:47:29;;;;;;;7.78;3.55;;;;;;;;;;5042720;28;20075;-87
2023/12/28 00:50:16;;;;;;;5.90;3.80;;;;;;;;;;5045184;28;20667;-87
2023/12/28 00:53:01;;;;;;;6.97;3.63;;;;;;;;;;5070411;28;20035;-88
2023/12/28 00:55:45;;;;;;;6.03;3.03;;;;;;;;;;5055237;28;20097;-88
2023/12/28 00:58:30;;;;;;;7.10;3.78;;;;;;;;;;5056449;28;20039;-88
2023/12/28 01:01:14;;;;;;;5.78;3.35;;;;;;;;;;5041540;28;20042;-89
2023/12/28 01:03:59;;;;;;;11.25;5.05;;;;;;;;;;5055801;28;20578;-87
2023/12/28 01:06:43;;;;;;;8.13;3.30;;;;;;;;;;5056270;28;20047;-87
2023/12/28 01:09:32;;;;;;;13.25;4.05;;;;;;;;;;5055679;28;20393;-88
2023/12/28 01:12:17;;;;;;;7.28;3.75;;;;;;;;;;5065187;28;20103;-87
2023/12/28 01:15:01;;;;;;;7.47;3.70;;;;;;;;;;5063102;28;20094;-88
2023/12/28 01:17:46;;;;;;;9.52;3.75;;;;;;;;;;5053865;28;20082;-88
2023/12/28 01:20:30;;;;;;;10.40;3.67;;;;;;;;;;5055883;28;20047;-89
2023/12/28 01:23:15;;;;;;;8.80;3.72;;;;;;;;;;5022850;28;20140;-87
2023/12/28 01:26:00;;;;;;;6.57;3.45;;;;;;;;;;5040828;28;20040;-89
2023/12/28 01:28:44;;;;;;;8.10;3.67;;;;;;;;;;5055300;28;20048;-87
2023/12/28 01:31:29;;;;;;;7.68;3.28;;;;;;;;;;5042162;28;20044;-88
2023/12/28 01:34:14;;;;;;;8.25;3.50;;;;;;;;;;5054739;28;20550;-88
2023/12/28 01:36:58;;;;;;;10.25;3.55;;;;;;;;;;5055466;28;20048;-87
2023/12/28 01:39:43;;;;;;;10.60;3.60;;;;;;;;;;5055936;28;20115;-89
2023/12/28 01:42:30;;;;;;;7.90;3.53;;;;;;;;;;5052910;28;20067;-87
2023/12/28 01:45:15;;;;;;;9.50;3.60;;;;;;;;;;5079056;28;20435;-87
2023/12/28 01:48:00;;;;;;;8.07;3.10;;;;;;;;;;5091000;28;20177;-87
2023/12/28 01:50:45;;;;;;;11.77;4.35;;;;;;;;;;5091208;28;20035;-88
2023/12/28 01:53:30;;;;;;;12.13;3.75;;;;;;;;;;5056078;28;20113;-87
2023/12/28 01:56:15;;;;;;;7.80;3.53;;;;;;;;;;5074080;28;20047;-87
2023/12/28 01:59:01;;;;;;;7.47;3.30;;;;;;;;;;5090983;28;20093;-87
2023/12/28 02:01:46;;;;;;;8.45;3.80;;;;;;;;;;5091179;28;20047;-87
2023/12/28 02:04:30;;;;;;;14.15;4.07;;;;;;;;;;5049487;28;20116;-86
2023/12/28 02:07:15;;;;;;;11.20;3.05;;;;;;;;;;5074947;28;20094;-86
2023/12/28 02:10:01;;;;;;;10.73;2.88;;;;;;;;;;5062976;28;20039;-87
2023/12/28 02:12:47;;;;;;;10.73;3.35;;;;;;;;;;5075515;28;20456;-87
2023/12/28 02:15:31;;;;;;;9.65;3.97;;;;;;;;;;5073732;28;20067;-86
2023/12/28 02:18:22;;;;;;;10.57;3.42;;;;;;;;;;5047013;28;20075;-87
2023/12/28 02:21:07;;;;;;;10.75;3.35;;;;;;;;;;5068380;28;20035;-88
2023/12/28 02:23:51;;;;;;;12.10;2.85;;;;;;;;;;5078478;28;20050;-87
2023/12/28 02:26:36;;;;;;;10.60;3.42;;;;;;;;;;5088477;28;20166;-86
2023/12/28 02:29:20;;;;;;;12.48;3.55;;;;;;;;;;5065272;28;20073;-86
2023/12/28 02:32:07;;;;;;;16.70;4.68;;;;;;;;;;5078424;28;20526;-88
2023/12/28 02:34:53;;;;;;;11.13;3.20;;;;;;;;;;5075592;28;20494;-87
2023/12/28 02:37:39;;;;;;;9.75;2.97;;;;;;;;;;5068137;28;20502;-87
2023/12/28 02:40:24;;;;;;;9.07;3.30;;;;;;;;;;5064905;28;20058;-88
2023/12/28 02:43:09;;;;;;;11.10;3.45;;;;;;;;;;5078688;28;20128;-88
2023/12/28 02:45:54;;;;;;;7.40;3.20;;;;;;;;;;5094246;28;20058;-87
2023/12/28 02:48:39;;;;;;;8.18;3.03;;;;;;;;;;5068928;28;20511;-88
2023/12/28 02:51:23;;;;;;;11.85;3.05;;;;;;;;;;5071023;28;20093;-87
2023/12/28 02:54:08;;;;;;;11.73;3.03;;;;;;;;;;5061534;28;20441;-87
2023/12/28 02:56:52;;;;;;;10.75;3.50;;;;;;;;;;5079301;28;20169;-87
2023/12/28 02:59:37;;;;;;;10.23;2.80;;;;;;;;;;5053779;28;20039;-88
2023/12/28 03:02:21;;;;;;;13.35;3.08;;;;;;;;;;5093728;28;20035;-87
2023/12/28 03:05:07;;;;;;;10.80;2.60;;;;;;;;;;5064296;28;20139;-87
2023/12/28 03:07:55;;;;;;;9.65;2.83;;;;;;;;;;5068257;28;20043;-87
2023/12/28 03:10:46;;;;;;;7.60;2.70;;;;;;;;;;5064288;28;20503;-87
2023/12/28 03:13:32;;;;;;;13.43;3.35;;;;;;;;;;5077241;28;20149;-88
2023/12/28 03:16:17;;;;;;;9.25;2.63;;;;;;;;;;5085866;28;20075;-88
2023/12/28 03:19:03;;;;;;;12.48;2.65;;;;;;;;;;5052992;28;20093;-87
2023/12/28 03:21:58;;;;;;;7.82;2.40;;;;;;;;;;5064104;28;20074;-87
2023/12/28 03:24:50;;;;;;;9.30;3.28;;;;;;;;;;5073216;28;20499;-87
2023/12/28 03:27:35;;;;;;;7.93;2.70;;;;;;;;;;5093142;28;20051;-86
2023/12/28 03:30:21;;;;;;;12.10;2.78;;;;;;;;;;5065369;28;20084;-88
2023/12/28 03:33:06;;;;;;;9.55;2.80;;;;;;;;;;5077789;28;20035;-87
2023/12/28 03:35:52;;;;;;;8.95;2.65;;;;;;;;;;5057889;28;20051;-87
2023/12/28 03:38:38;;;;;;;18.15;4.88;;;;;;;;;;5066619;28;20078;-87
2023/12/28 03:41:23;;;;;;;11.38;2.78;;;;;;;;;;5092127;28;20047;-88
2023/12/28 03:44:08;;;;;;;10.52;2.83;;;;;;;;;;5093266;28;20413;-86
2023/12/28 03:46:53;;;;;;;10.18;2.55;;;;;;;;;;5066398;28;20047;-88
2023/12/28 03:49:38;;;;;;;8.18;2.50;;;;;;;;;;5077050;28;20412;-87
2023/12/28 03:52:23;;;;;;;9.75;3.20;;;;;;;;;;5077485;28;20460;-88
2023/12/28 03:55:08;;;;;;;10.05;2.28;;;;;;;;;;5061554;28;20075;-87
2023/12/28 03:57:52;;;;;;;11.20;2.53;;;;;;;;;;5091721;28;20085;-86
2023/12/28 04:00:37;;;;;;;12.13;2.28;;;;;;;;;;5076975;28;20081;-88
2023/12/28 04:03:22;;;;;;;10.13;2.20;;;;;;;;;;5076034;28;20549;-87
2023/12/28 04:06:07;;;;;;;9.50;2.78;;;;;;;;;;5091471;28;20403;-87
2023/12/28 04:08:52;;;;;;;14.95;4.07;;;;;;;;;;5090921;28;20066;-86
2023/12/28 04:11:38;;;;;;;8.43;2.45;;;;;;;;;;5069547;28;20071;-87
2023/12/28 04:14:23;;;;;;;7.95;2.65;;;;;;;;;;5066014;28;20047;-87
2023/12/28 04:17:08;;;;;;;9.13;2.50;;;;;;;;;;5061822;28;20085;-87
2023/12/28 04:19:53;;;;;;;10.45;3.40;;;;;;;;;;5077269;28;20054;-87
2023/12/28 04:22:38;;;;;;;7.15;2.30;;;;;;;;;;5066952;28;20125;-87
2023/12/28 04:25:23;;;;;;;6.78;2.63;;;;;;;;;;5065912;28;20051;-87
2023/12/28 04:28:07;;;;;;;12.93;2.40;;;;;;;;;;5092216;28;20096;-88
2023/12/28 04:30:52;;;;;;;13.65;2.88;;;;;;;;;;5077326;28;20070;-87
2023/12/28 04:33:37;;;;;;;10.77;2.90;;;;;;;;;;5076938;28;20042;-87
2023/12/28 04:36:21;;;;;;;10.07;2.35;;;;;;;;;;5076509;28;20066;-87
2023/12/28 04:39:06;;;;;;;8.38;2.30;;;;;;;;;;5063080;28;20039;-88
2023/12/28 04:41:50;;;;;;;16.27;2.90;;;;;;;;;;5068607;28;20055;-88
2023/12/28 04:44:38;;;;;;;12.15;2.10;;;;;;;;;;5037667;28;20113;-88
2023/12/28 04:47:23;;;;;;;13.60;3.13;;;;;;;;;;5056812;28;20052;-86
2023/12/28 04:50:08;;;;;;;11.88;3.17;;;;;;;;;;5060506;28;20044;-87
2023/12/28 04:52:53;;;;;;;11.05;3.22;;;;;;;;;;5055878;28;20039;-87
2023/12/28 04:55:38;;;;;;;15.85;2.47;;;;;;;;;;5041880;28;20039;-88
2023/12/28 04:58:23;;;;;;;10.23;2.78;;;;;;;;;;5057054;28;20097;-87
2023/12/28 05:01:07;;;;;;;18.52;2.92;;;;;;;;;;5051184;28;20035;-87
2023/12/28 05:03:52;;;;;;;15.02;2.92;;;;;;;;;;5050736;28;20044;-87
2023/12/28 05:06:37;;;;;;;10.10;2.60;;;;;;;;;;5056146;28;20047;-87
2023/12/28 05:09:22;;;;;;;16.48;3.10;;;;;;;;;;5056338;28;20040;-88
2023/12/28 05:12:12;;;;;;;8.13;2.35;;;;;;;;;;5056163;28;20036;-87
2023/12/28 05:14:57;;;;;;;12.45;2.70;;;;;;;;;;5042667;28;20048;-88
2023/12/28 05:17:43;;;;;;;12.55;2.67;;;;;;;;;;5031581;28;20146;-88
2023/12/28 05:20:27;;;;;;;14.50;2.50;;;;;;;;;;5042085;28;20048;-87
2023/12/28 05:23:12;;;;;;;12.02;2.40;;;;;;;;;;5042094;28;20040;-87
2023/12/28 05:25:56;;;;;;;11.27;2.65;;;;;;;;;;5047077;28;20047;-87
2023/12/28 05:28:41;;;;;;;13.32;2.70;;;;;;;;;;5058032;28;20554;-87
2023/12/28 05:31:25;;;;;;;11.98;2.45;;;;;;;;;;5053054;28;20404;-86
2023/12/28 05:34:11;;;;;;;12.40;2.30;;;;;;;;;;5071312;28;20043;-87
2023/12/28 05:36:56;;;;;;;11.95;3.05;;;;;;;;;;5030640;28;20489;-86
2023/12/28 05:39:41;;;;;;;13.52;2.75;;;;;;;;;;5052533;28;20044;-87
2023/12/28 05:42:25;;;;;;;6.45;2.47;;;;;;;;;;5073028;28;20086;-87
2023/12/28 05:45:10;;;;;;;15.23;3.33;;;;;;;;;;5056287;28;20539;-86
2023/12/28 05:47:55;;;;;;;16.42;3.20;;;;;;;;;;5055126;28;20044;-87
2023/12/28 05:50:39;;;;;;;14.70;3.30;;;;;;;;;;5055651;28;20402;-89
2023/12/28 05:53:29;;;;;;;10.32;2.47;;;;;;;;;;5031153;28;20139;-87
2023/12/28 05:56:13;;;;;;;15.98;3.15;;;;;;;;;;5055652;28;20032;-86
2023/12/28 05:58:58;;;;;;;14.75;3.08;;;;;;;;;;5044325;28;20101;-89
2023/12/28 06:01:43;;;;;;;12.85;2.60;;;;;;;;;;5059687;28;20036;-87
2023/12/28 06:04:28;;;;;;;16.45;2.45;;;;;;;;;;5075157;28;20035;-87
2023/12/28 06:07:13;;;;;;;15.45;3.22;;;;;;;;;;5048836;28;20055;-87
2023/12/28 06:09:57;;;;;;;10.10;2.35;;;;;;;;;;5059656;28;20404;-87
2023/12/28 06:12:41;;;;;;;18.42;2.78;;;;;;;;;;5039840;28;20071;-91
2023/12/28 06:15:26;;;;;;;14.80;2.40;;;;;;;;;;5071793;28;20507;-88
2023/12/28 06:18:10;;;;;;;10.60;2.80;;;;;;;;;;5052468;28;20408;-88
2023/12/28 06:20:55;;;;;;;15.10;2.97;;;;;;;;;;5074199;28;20513;-87
2023/12/28 06:23:40;;;;;;;7.40;1.85;;;;;;;;;;5074884;28;20085;-85
2023/12/28 06:26:26;;;;;;;17.48;3.28;;;;;;;;;;5044974;28;20110;-88
2023/12/28 06:29:11;;;;;;;16.60;4.10;;;;;;;;;;5074054;28;20087;-87
2023/12/28 06:31:56;;;;;;;19.00;3.03;;;;;;;;;;5049119;28;20040;-87
2023/12/28 06:34:40;;;;;;;9.70;2.30;;;;;;;;;;5059123;28;20067;-87
2023/12/28 06:37:25;;;;;;;12.10;2.97;;;;;;;;;;5057198;28;20591;-91
2023/12/28 06:40:11;;;;;;;15.80;2.85;;;;;;;;;;5042641;28;20550;-86
2023/12/28 06:42:55;;;;;;;19.38;3.67;;;;;;;;;;5047500;28;20149;-87
2023/12/28 06:45:40;;;;;;;16.33;2.95;;;;;;;;;;5065352;28;20508;-86
2023/12/28 06:48:26;;;;;;;15.05;2.90;;;;;;;;;;5070561;28;20089;-89
2023/12/28 06:51:16;;;;;;;14.60;2.33;;;;;;;;;;5057842;28;20039;-87
2023/12/28 06:54:01;;;;;;;13.55;2.67;;;;;;;;;;5073145;28;20491;-87
2023/12/28 06:56:45;;;;;;;15.50;3.58;;;;;;;;;;5049859;28;20086;-86
2023/12/28 06:59:30;;;;;;;15.52;2.33;;;;;;;;;;5056670;28;20463;-87
2023/12/28 07:02:15;;;;;;;16.30;3.08;;;;;;;;;;5074126;28;20094;-87
2023/12/28 07:04:59;;;;;;;11.52;2.63;;;;;;;;;;5071452;28;20106;-86
2023/12/28 07:07:44;;;;;;;7.93;2.30;;;;;;;;;;5062353;28;20079;-86
2023/12/28 07:10:28;;;;;;;10.55;2.72;;;;;;;;;;5073337;28;20129;-86
2023/12/28 07:13:30;;;;;;;24.27;3.08;;;;;;;;;;5044981;28;20040;-83
2023/12/28 07:16:26;;;;;;;12.73;2.70;;;;;;;;;;5042874;28;20043;-84
2023/12/28 07:19:30;;;;;;;16.15;2.95;;;;;;;;;;5071297;28;20723;-84
2023/12/28 07:22:16;;;;;;;11.80;2.28;;;;;;;;;;5049123;28;20039;-86
2023/12/28 07:25:01;;;;;;;14.88;3.20;;;;;;;;;;5047542;28;20081;-84
2023/12/28 07:27:45;;;;;;;13.45;2.58;;;;;;;;;;5050609;28;20098;-84
2023/12/28 07:30:41;;;;;;;19.92;3.33;;;;;;;;;;5072595;28;20040;-83
2023/12/28 07:33:32;;;;;;;18.08;2.85;;;;;;;;;;5069974;28;20032;-88
2023/12/28 07:36:45;;;;;;;25.75;4.50;;;;;;;;;;5061015;28;20251;-87
2023/12/28 07:50:02;;;;;;;13.90;3.00;;;;;;;;;;5075759;28;20064;-87
2023/12/28 07:52:49;;;;;;;10.50;1.90;;;;;;;;;;5068900;28;20039;-85
2023/12/28 07:55:46;;;;;;;25.02;6.32;;;;;;;;;;5066210;28;20125;-86
2023/12/28 07:58:55;;;;;;;22.60;3.55;;;;;;;;;;5053487;28;20044;-87
2023/12/28 08:02:01;;;;;;;14.73;3.83;;;;;;;;;;5059279;28;20083;-86
2023/12/28 08:05:06;;;;;;;17.45;3.35;;;;;;;;;;5055099;28;20551;-87
2023/12/28 08:11:14;;;;;;;21.40;3.35;;;;;;;;;;5048982;28;19951;-86
2023/12/28 08:13:58;;;;;;;19.05;3.90;;;;;;;;;;5043323;28;20044;-90
2023/12/28 08:16:43;;;;;;;16.42;2.67;;;;;;;;;;5050204;28;20119;-85
2023/12/28 08:19:27;;;;;;;23.55;4.40;;;;;;;;;;5036254;28;20095;-88
2023/12/28 08:22:31;;;;;;;27.02;3.97;;;;;;;;;;5035241;28;20132;-84
2023/12/28 08:25:16;;;;;;;30.90;4.60;;;;;;;;;;5049067;28;20036;-87
2023/12/28 08:28:01;;;;;;;23.52;4.20;;;;;;;;;;5007885;28;20060;-88
2023/12/28 08:31:17;;;;;;;18.55;3.95;;;;;;;;;;5049609;28;20075;-87
2023/12/28 08:37:25;;;;;;;17.00;4.13;;;;;;;;;;5040138;28;20086;-86
2023/12/28 08:40:10;;;;;;;21.15;3.42;;;;;;;;;;5031596;28;20040;-86
2023/12/28 08:46:56;;;;;;;20.38;4.25;;;;;;;;;;5045696;28;20153;-85
2023/12/28 08:49:44;;;;;;;23.98;3.95;;;;;;;;;;5051137;28;20048;-84
2023/12/28 08:52:51;;;;;;;29.70;4.60;;;;;;;;;;5048939;28;20039;-85
2023/12/28 08:55:59;;;;;;;29.25;3.65;;;;;;;;;;5035757;28;20535;-85
2023/12/28 08:59:12;;;;;;;20.13;3.58;;;;;;;;;;5047257;28;20116;-87
2023/12/28 09:06:06;;;;;;;19.92;4.00;;;;;;;;;;5063095;28;20147;-85
2023/12/28 09:09:12;;;;;;;22.30;3.80;;;;;;;;;;5061000;28;20051;-86
2023/12/28 09:15:31;;;;;;;19.55;3.80;;;;;;;;;;5067408;28;20071;-85
2023/12/28 09:21:32;;;;;;;25.27;4.05;;;;;;;;;;5063377;28;20048;-85
2023/12/28 09:27:53;;;;;;;16.58;2.60;;;;;;;;;;5045399;28;20086;-85
2023/12/28 09:30:44;;;;;;;17.65;3.20;;;;;;;;;;5060111;28;20036;-86
2023/12/28 09:33:39;;;;;;;;;;;;;;;;;;5069673;28;20038;-84
2023/12/28 09:37:06;;;;;;;22.67;5.03;;;;;;;;;;5066449;28;21212;-84
2023/12/28 09:40:22;;;;;;;21.35;2.95;;;;;;;;;;5002773;28;20068;-84
2023/12/28 09:46:46;;;;;;;26.75;3.90;;;;;;;;;;5070221;28;20043;-85
2023/12/28 09:53:47;;;;;;;19.52;3.28;;;;;;;;;;5085874;28;20136;-84
2023/12/28 09:57:07;;;;;;;19.67;3.75;;;;;;;;;;5090821;28;20409;-85
2023/12/28 10:00:30;;;;;;;16.88;3.70;;;;;;;;;;5080076;28;20101;-84
2023/12/28 10:03:22;;;;;;;17.58;2.90;;;;;;;;;;5063777;28;20051;-87
2023/12/28 10:06:30;;;;;;;21.38;3.17;;;;;;;;;;5052282;28;20499;-85
2023/12/28 10:09:16;;;;;;;19.92;3.50;;;;;;;;;;5073716;28;20453;-85
2023/12/28 10:12:04;;;;;;;23.25;4.35;;;;;;;;;;5088310;28;20409;-84
2023/12/28 10:18:26;;;;;;;15.73;3.40;;;;;;;;;;5064752;28;20094;-87
2023/12/28 10:21:34;;;;;;;22.57;3.63;;;;;;;;;;5074790;28;20102;-85
2023/12/28 10:24:46;;;;;;;21.63;4.47;;;;;;;;;;5063009;28;20506;-87
2023/12/28 10:27:33;;;;;;;28.65;3.80;;;;;;;;;;5075157;28;20063;-84
2023/12/28 10:30:22;;;;;;;17.88;3.20;;;;;;;;;;5075797;28;20043;-85
2023/12/28 10:33:26;;;;;;;19.63;3.45;;;;;;;;;;5075364;28;20034;-84
2023/12/28 10:36:36;;;;;;;21.38;3.72;;;;;;;;;;5074609;28;20184;-86
2023/12/28 10:39:32;;;;;;;24.00;3.55;;;;;;;;;;5089592;28;20046;-85
2023/12/28 10:42:37;;;;;;;19.80;4.25;;;;;;;;;;5063933;28;20047;-85
2023/12/28 10:45:26;;;;;;;22.38;3.78;;;;;;;;;;5093973;28;20582;-87
2023/12/28 10:51:38;;;;;;;24.40;4.82;;;;;;;;;;5083614;28;20079;-87
2023/12/28 10:55:00;;;;;;;20.85;3.67;;;;;;;;;;5072158;28;20098;-90
2023/12/28 11:01:38;;;;;;;20.85;3.42;;;;;;;;;;5056774;28;20457;-84
2023/12/28 11:04:43;;;;;;;15.63;3.65;;;;;;;;;;5072620;28;20487;-87
2023/12/28 11:11:15;;;;;;;15.95;3.03;;;;;;;;;;5073680;28;20112;-89
2023/12/28 11:14:21;;;;;;;20.45;4.78;;;;;;;;;;5065239;28;20097;-88
2023/12/28 11:17:08;;;;;;;23.45;4.13;;;;;;;;;;5074120;28;20100;-87
2023/12/28 11:19:56;;;;;;;11.85;3.70;;;;;;;;;;5067495;28;20034;-88
2023/12/28 11:22:43;;;;;;;32.33;4.47;;;;;;;;;;5075813;28;20047;-89
2023/12/28 11:25:55;;;;;;;24.30;4.10;;;;;;;;;;5042715;28;20075;-89
2023/12/28 11:28:47;;;;;;;16.98;4.07;;;;;;;;;;5040052;28;20051;-88
2023/12/28 11:31:52;;;;;;;28.65;4.18;;;;;;;;;;5072300;28;20092;-88
2023/12/28 11:34:51;;;;;;;24.80;3.92;;;;;;;;;;5061826;28;20121;-89
2023/12/28 11:41:04;;;;;;;21.77;3.72;;;;;;;;;;5068620;28;20040;-88
2023/12/28 11:44:51;;;;;;;20.23;4.05;;;;;;;;;;5064662;28;20036;-88
2023/12/28 11:48:03;;;;;;;20.92;4.40;;;;;;;;;;4990330;28;20138;-88
2023/12/28 11:54:35;;;;;;;16.13;3.35;;;;;;;;;;5072020;28;20059;-87
2023/12/28 11:57:24;;;;;;;17.50;3.08;;;;;;;;;;5048374;28;20051;-88
2023/12/28 12:03:27;;;;;;;17.85;3.03;;;;;;;;;;5062962;28;20083;-89
2023/12/28 12:06:19;;;;;;;27.50;4.57;;;;;;;;;;5046173;28;20075;-86
2023/12/28 12:09:27;;;;;;;20.98;4.45;;;;;;;;;;5022169;28;20104;-88
2023/12/28 12:15:43;;;;;;;24.77;4.75;;;;;;;;;;5024176;28;20040;-90
2023/12/28 12:18:30;;;;;;;24.80;3.55;;;;;;;;;;5025632;28;20164;-87
2023/12/28 12:24:58;;;;;;;21.92;3.47;;;;;;;;;;5017809;28;20048;-87
2023/12/28 12:28:28;;;;;;;27.80;4.50;;;;;;;;;;5006605;28;20057;-87
2023/12/28 12:31:17;;;;;;;20.08;4.13;;;;;;;;;;5010569;28;20049;-88
2023/12/28 12:37:05;;;;;;;22.90;4.15;;;;;;;;;;5020640;28;20572;-86
2023/12/28 12:40:19;;;;;;;17.13;4.57;;;;;;;;;;4986631;28;20088;-80
2023/12/28 12:43:37;;;;;;;35.65;5.85;;;;;;;;;;5014230;28;20563;-86
2023/12/28 12:50:02;;;;;;;17.73;3.17;;;;;;;;;;5029359;28;20119;-85
2023/12/28 12:53:25;;;;;;;19.02;3.63;;;;;;;;;;5038615;28;20416;-85
2023/12/28 12:56:57;;;;;;;19.88;3.53;;;;;;;;;;4958822;28;20050;-85
2023/12/28 12:59:50;;;;;;;21.27;3.85;;;;;;;;;;4992177;28;20110;-86
2023/12/28 13:02:44;;;;;;;17.85;2.90;;;;;;;;;;5015363;28;20427;-86
2023/12/28 13:05:29;;;;;;;16.55;4.25;;;;;;;;;;5002334;28;20099;-86
2023/12/28 13:08:28;;;;;;;16.50;3.53;;;;;;;;;;5028893;28;20564;-85
2023/12/28 13:11:26;;;;;;;26.35;4.20;;;;;;;;;;5069264;28;20090;-87
2023/12/28 13:17:36;;;;;;;20.75;3.70;;;;;;;;;;5078572;28;20061;-86
2023/12/28 13:20:23;;;;;;;22.95;4.43;;;;;;;;;;5075924;28;20407;-87
2023/12/28 13:23:43;;;;;;;24.13;5.30;;;;;;;;;;5077638;28;20039;-86
2023/12/28 13:26:44;;;;;;;17.70;4.50;;;;;;;;;;5090086;28;20073;-87
2023/12/28 13:29:38;;;;;;;11.68;3.17;;;;;;;;;;5084261;28;20120;-86
2023/12/28 13:32:23;;;;;;;20.50;3.85;;;;;;;;;;5066406;28;20035;-87
2023/12/28 13:38:36;;;;;;;24.25;3.65;;;;;;;;;;5079701;28;20514;-86
2023/12/28 13:41:36;;;;;;;15.23;2.70;;;;;;;;;;5070084;28;20057;-86
2023/12/28 13:44:37;;;;;;;22.45;4.32;;;;;;;;;;5072591;28;20141;-85
2023/12/28 13:47:33;;;;;;;20.17;3.63;;;;;;;;;;5091063;28;20066;-87
2023/12/28 13:50:45;;;;;;;21.98;3.63;;;;;;;;;;5038052;28;20048;-85
2023/12/28 13:56:37;;;;;;;24.90;4.00;;;;;;;;;;5037265;28;20101;-87
2023/12/28 13:59:23;;;;;;;27.17;4.07;;;;;;;;;;5032581;28;20067;-88
2023/12/28 14:05:17;;;;;;;17.80;3.60;;;;;;;;;;5028450;28;20076;-86
2023/12/28 14:08:20;;;;;;;25.80;5.18;;;;;;;;;;5039031;28;20060;-86
2023/12/28 14:11:14;;;;;;;16.67;3.22;;;;;;;;;;5028118;28;20128;-88
2023/12/28 14:14:22;;;;;;;20.93;3.97;;;;;;;;;;5031521;28;20076;-86
2023/12/28 14:17:33;;;;;;;19.67;4.63;;;;;;;;;;5002767;28;20059;-86
2023/12/28 14:21:13;;;;;;;24.27;4.53;;;;;;;;;;5052864;28;20079;-86
2023/12/28 14:24:09;;;;;;;26.13;4.20;;;;;;;;;;5040986;28;20524;-87
2023/12/28 14:27:12;;;;;;;21.65;3.92;;;;;;;;;;5051701;28;20052;-90
2023/12/28 14:29:58;;;;;;;18.45;3.55;;;;;;;;;;5026243;28;20056;-88
2023/12/28 14:32:52;;;;;;;19.48;4.40;;;;;;;;;;5032216;28;20048;-89
2023/12/28 14:35:38;;;;;;;30.60;4.00;;;;;;;;;;5051965;28;20436;-89
2023/12/28 14:38:38;;;;;;;16.80;3.53;;;;;;;;;;5031971;28;20121;-87
2023/12/28 14:41:29;;;;;;;22.23;4.13;;;;;;;;;;5069496;28;21230;-87
2023/12/28 14:44:15;;;;;;;22.50;3.50;;;;;;;;;;5093706;28;20487;-88
2023/12/28 14:47:00;;;;;;;23.33;3.58;;;;;;;;;;5068032;28;20119;-89
2023/12/28 14:49:45;;;;;;;20.00;3.83;;;;;;;;;;5078590;28;20116;-87
2023/12/28 14:52:29;;;;;;;20.80;3.35;;;;;;;;;;5082172;28;20039;-91
2023/12/28 14:55:14;;;;;;;18.80;3.65;;;;;;;;;;5070774;28;20056;-87
2023/12/28 14:57:59;;;;;;;28.75;5.13;;;;;;;;;;5058258;28;20059;-86
2023/12/28 15:00:44;;;;;;;21.15;3.70;;;;;;;;;;5044736;28;20090;-87
2023/12/28 15:03:30;;;;;;;21.38;3.80;;;;;;;;;;5073678;28;20040;-86
2023/12/28 15:06:36;;;;;;;25.75;4.20;;;;;;;;;;5073636;28;20040;-87
2023/12/28 15:09:21;;;;;;;12.73;3.40;;;;;;;;;;5072604;28;20042;-88
2023/12/28 15:12:25;;;;;;;19.80;4.15;;;;;;;;;;5057205;28;20055;-87
2023/12/28 15:15:12;;;;;;;;;;;;;;;;;;5053566;28;20044;-86
2023/12/28 15:17:58;;;;;;;23.42;4.10;;;;;;;;;;5064070;28;19920;-87
2023/12/28 15:21:11;;;;;;;14.27;3.63;;;;;;;;;;5043765;28;20039;-87
2023/12/28 15:24:01;;;;;;;24.23;3.80;;;;;;;;;;5066647;28;20068;-86
2023/12/28 15:26:45;;;;;;;25.80;4.95;;;;;;;;;;5055939;28;20048;-86
2023/12/28 15:29:31;;;;;;;15.82;4.82;;;;;;;;;;5072203;28;20063;-86
2023/12/28 15:32:16;;;;;;;22.08;3.45;;;;;;;;;;5066571;28;20799;-88
2023/12/28 15:35:02;;;;;;;20.63;3.97;;;;;;;;;;5056023;28;20039;-87
2023/12/28 15:37:54;;;;;;;13.02;2.30;;;;;;;;;;5055849;28;20079;-86
2023/12/28 15:40:47;;;;;;;17.67;2.70;;;;;;;;;;5058823;28;20043;-86
2023/12/28 15:43:37;;;;;;;15.80;2.40;;;;;;;;;;5058970;28;20032;-86
2023/12/28 15:46:22;;;;;;;16.50;4.00;;;;;;;;;;5069117;28;20043;-86
2023/12/28 15:49:08;;;;;;;28.75;4.10;;;;;;;;;;5072597;28;20130;-87
2023/12/28 15:51:55;;;;;;;24.35;3.42;;;;;;;;;;5047779;28;20047;-86
2023/12/28 15:54:40;;;;;;;14.82;3.50;;;;;;;;;;5073007;28;20098;-86
2023/12/28 15:57:25;;;;;;;23.80;5.55;;;;;;;;;;5056022;28;20558;-86
2023/12/28 16:00:11;;;;;;;17.88;3.95;;;;;;;;;;5057561;28;20549;-86
2023/12/28 16:03:24;;;;;;;18.83;3.85;;;;;;;;;;5072759;28;20499;-84
2023/12/28 16:06:11;;;;;;;24.02;4.28;;;;;;;;;;5056207;28;20104;-83
2023/12/28 16:12:00;;;;;;;;;;;;;;;;;;5072451;28;20056;-87
2023/12/28 16:14:55;;;;;;;22.17;3.45;;;;;;;;;;5072626;28;19974;-86
2023/12/28 16:17:40;;;;;;;19.00;3.35;;;;;;;;;;5072893;28;20039;-85
2023/12/28 16:20:33;;;;;;;15.02;2.78;;;;;;;;;;5056667;28;20110;-85
2023/12/28 16:23:18;;;;;;;19.85;3.40;;;;;;;;;;5067227;28;20484;-89
2023/12/28 16:26:04;;;;;;;18.50;3.75;;;;;;;;;;5049200;28;20079;-85
2023/12/28 16:29:02;;;;;;;19.55;4.38;;;;;;;;;;5052696;28;20043;-85
2023/12/28 16:31:47;;;;;;;19.58;4.05;;;;;;;;;;5061846;28;20074;-88
2023/12/28 16:34:31;;;;;;;13.85;2.97;;;;;;;;;;5059920;28;20547;-86
2023/12/28 16:37:16;;;;;;;20.67;3.00;;;;;;;;;;5046313;28;20040;-88
2023/12/28 16:40:00;;;;;;;19.90;3.42;;;;;;;;;;5055564;28;20126;-89
2023/12/28 16:42:45;;;;;;;18.35;3.08;;;;;;;;;;5070740;28;20032;-89
2023/12/28 16:45:30;;;;;;;15.25;3.33;;;;;;;;;;5033554;28;20059;-91
2023/12/28 16:48:14;;;;;;;27.90;8.90;;;;;;;;;;5055237;28;20048;-91
2023/12/28 16:51:02;;;;;;;15.93;3.63;;;;;;;;;;5071571;28;20044;-91
2023/12/28 16:53:47;;;;;;;14.88;3.42;;;;;;;;;;5042967;28;20447;-88
2023/12/28 16:56:31;;;;;;;18.65;3.25;;;;;;;;;;5059883;28;20044;-86
2023/12/28 16:59:16;;;;;;;21.17;3.75;;;;;;;;;;5070992;28;20073;-86
2023/12/28 17:02:11;;;;;;;22.88;4.45;;;;;;;;;;5056099;28;20040;-87
2023/12/28 17:04:56;;;;;;;14.20;3.53;;;;;;;;;;5056352;28;20112;-84
2023/12/28 17:07:42;;;;;;;13.25;3.70;;;;;;;;;;5055598;28;20047;-88
2023/12/28 17:10:27;;;;;;;21.58;3.65;;;;;;;;;;5055404;28;20031;-86
2023/12/28 17:13:19;;;;;;;22.92;3.67;;;;;;;;;;5071275;28;20039;-84
2023/12/28 17:16:04;;;;;;;18.40;3.90;;;;;;;;;;5064631;28;20056;-86
2023/12/28 17:18:53;;;;;;;17.45;3.60;;;;;;;;;;5038363;28;20043;-89
2023/12/28 17:21:39;;;;;;;20.80;3.92;;;;;;;;;;5071054;28;20039;-89
2023/12/28 17:24:32;;;;;;;21.63;4.65;;;;;;;;;;5040776;28;20444;-88
2023/12/28 17:27:19;;;;;;;21.83;4.90;;;;;;;;;;5051816;28;20106;-86
2023/12/28 17:30:06;;;;;;;21.83;5.03;;;;;;;;;;5070030;28;20396;-85
2023/12/28 17:32:54;;;;;;;17.30;4.13;;;;;;;;;;5041568;28;20044;-84
2023/12/28 17:35:39;;;;;;;21.15;4.05;;;;;;;;;;5055292;28;20705;-84
2023/12/28 17:38:25;;;;;;;17.85;3.10;;;;;;;;;;5042635;28;20515;-87
2023/12/28 17:41:13;;;;;;;22.77;6.88;;;;;;;;;;5055955;28;20036;-84
2023/12/28 17:44:00;;;;;;;14.90;2.92;;;;;;;;;;5070839;28;20036;-86
2023/12/28 17:46:49;;;;;;;15.25;2.70;;;;;;;;;;5065225;28;20039;-83
2023/12/28 17:49:34;;;;;;;23.35;3.72;;;;;;;;;;5055273;28;20507;-83
2023/12/28 17:52:35;;;;;;;20.85;3.50;;;;;;;;;;5053877;28;20529;-84
2023/12/28 17:55:34;;;;;;;21.85;3.97;;;;;;;;;;5069701;28;20066;-88
2023/12/28 17:58:56;;;;;;;20.52;5.25;;;;;;;;;;5062777;28;20131;-85
2023/12/28 18:05:12;;;;;;;16.25;3.15;;;;;;;;;;5066861;28;20115;-86
2023/12/28 18:07:56;;;;;;;16.95;4.22;;;;;;;;;;5047375;28;20143;-88
2023/12/28 18:10:41;;;;;;;14.90;3.00;;;;;;;;;;5053786;28;20048;-86
2023/12/28 18:13:27;;;;;;;20.83;4.07;;;;;;;;;;5048142;28;20060;-86
2023/12/28 18:16:20;;;;;;;17.95;3.42;;;;;;;;;;5051727;28;20043;-84
2023/12/28 18:19:18;;;;;;;21.13;3.83;;;;;;;;;;5070493;28;20063;-86
2023/12/28 18:22:07;;;;;;;14.40;3.33;;;;;;;;;;5070440;28;20442;-85
2023/12/28 18:24:54;;;;;;;15.85;3.00;;;;;;;;;;5045197;28;20500;-85
2023/12/28 18:27:40;;;;;;;10.05;2.35;;;;;;;;;;5055216;28;20087;-85
2023/12/28 18:30:25;;;;;;;18.10;5.80;;;;;;;;;;5043952;28;20082;-84